createdAt,value
2023-05-07T00:04:54.365Z,16.58
2023-05-07T00:09:58.426Z,15.73
2023-05-07T00:15:01.180Z,17.45
2023-05-07T00:20:04.594Z,15.90
2023-05-07T00:25:09.618Z,17.67
2023-05-07T00:30:13.448Z,18.75
2023-05-07T00:35:16.269Z,19.80
2023-05-07T00:40:20.480Z,19.10
2023-05-07T00:45:23.247Z,20.60
2023-05-07T00:50:26.244Z,21.02
2023-05-07T00:55:31.223Z,19.33
2023-05-07T01:00:33.988Z,19.83
2023-05-07T01:05:37.068Z,21.73
2023-05-07T01:10:44.009Z,19.00
2023-05-07T01:15:47.304Z,15.93
2023-05-07T01:20:50.029Z,16.10
2023-05-07T01:25:57.050Z,18.08
2023-05-07T01:31:03.798Z,18.05
2023-05-07T01:36:09.563Z,18.08
2023-05-07T01:41:14.163Z,19.50
2023-05-07T01:46:17.686Z,17.10
2023-05-07T01:51:22.226Z,18.37
2023-05-07T01:56:26.937Z,20.00
2023-05-07T02:01:29.679Z,19.10
2023-05-07T02:06:32.763Z,19.70
2023-05-07T02:11:36.773Z,15.98
2023-05-07T02:16:39.491Z,21.55
2023-05-07T02:21:42.216Z,16.43
2023-05-07T02:26:46.278Z,19.37
2023-05-07T02:31:51.656Z,20.20
2023-05-07T02:36:54.552Z,17.43
2023-05-07T02:41:58.626Z,16.55
2023-05-07T02:47:01.331Z,13.70
2023-05-07T02:52:04.167Z,12.03
2023-05-07T02:57:08.158Z,13.53
2023-05-07T03:02:11.177Z,11.73
2023-05-07T03:07:13.818Z,13.13
2023-05-07T03:12:17.820Z,12.33
2023-05-07T03:17:20.747Z,16.57
2023-05-07T03:22:23.435Z,15.17
2023-05-07T03:27:27.460Z,15.60
2023-05-07T03:32:30.264Z,14.50
2023-05-07T03:37:33.097Z,16.33
2023-05-07T03:42:37.179Z,18.23
2023-05-07T03:47:39.898Z,17.77
2023-05-07T03:52:42.588Z,20.13
2023-05-07T03:57:46.604Z,22.00
2023-05-07T04:02:49.441Z,22.67
2023-05-07T04:07:52.238Z,22.53
2023-05-07T04:12:56.329Z,21.40
2023-05-07T04:17:59.088Z,20.07
2023-05-07T04:23:01.799Z,20.53
2023-05-07T04:28:06.960Z,19.07
2023-05-07T04:33:09.710Z,20.17
2023-05-07T04:38:12.475Z,19.23
2023-05-07T04:43:17.035Z,17.07
2023-05-07T04:48:21.458Z,15.90
2023-05-07T04:53:24.289Z,16.83
2023-05-07T04:58:28.305Z,16.03
2023-05-07T05:03:31.197Z,19.33
2023-05-07T05:08:34.147Z,20.00
2023-05-07T05:13:38.143Z,21.93
2023-05-07T05:18:41.161Z,19.80
2023-05-07T05:23:43.890Z,18.50
2023-05-07T05:28:47.973Z,18.43
2023-05-07T05:33:50.633Z,17.10
2023-05-07T05:38:53.283Z,12.90
2023-05-07T05:43:57.249Z,14.63
2023-05-07T05:49:00.082Z,11.98
2023-05-07T05:54:02.820Z,11.93
2023-05-07T05:59:06.854Z,10.45
2023-05-07T06:04:09.710Z,12.32
2023-05-07T06:09:12.691Z,10.68
2023-05-07T06:14:16.688Z,10.38
2023-05-07T06:19:24.032Z,10.90
2023-05-07T06:24:26.732Z,10.73
2023-05-07T06:29:33.684Z,8.83
2023-05-07T06:34:36.329Z,8.10
2023-05-07T06:39:39.012Z,8.38
2023-05-07T06:44:42.952Z,8.23
2023-05-07T06:49:45.618Z,9.50
2023-05-07T06:54:48.742Z,8.73
2023-05-07T06:59:52.758Z,14.93
2023-05-07T07:04:55.539Z,12.45
2023-05-07T07:09:58.212Z,11.18
2023-05-07T07:15:03.372Z,10.27
2023-05-07T07:20:07.766Z,8.33
2023-05-07T07:25:12.068Z,7.75
2023-05-07T07:30:16.257Z,6.83
2023-05-07T07:35:19.148Z,6.95
2023-05-07T07:40:21.921Z,5.73
2023-05-07T07:45:25.956Z,5.47
2023-05-07T07:50:43.619Z,5.60
2023-05-07T07:55:48.327Z,5.35
2023-05-07T08:00:52.303Z,5.15
2023-05-07T08:05:54.953Z,5.63
2023-05-07T08:10:57.658Z,4.70
2023-05-07T08:16:01.621Z,4.47
2023-05-07T08:21:04.517Z,4.68
2023-05-07T08:26:07.251Z,4.00
2023-05-07T08:31:11.326Z,5.63
2023-05-07T08:36:14.018Z,4.45
2023-05-07T08:41:16.809Z,4.25
2023-05-07T08:46:22.582Z,5.47
2023-05-07T08:51:25.357Z,6.03
2023-05-07T08:56:28.018Z,7.90
2023-05-07T09:01:32.227Z,6.85
2023-05-07T09:06:35.623Z,7.47
2023-05-07T09:11:38.286Z,9.80
2023-05-07T09:16:42.396Z,9.18
2023-05-07T09:21:45.092Z,8.90
2023-05-07T09:26:48.088Z,7.75
2023-05-07T09:31:52.124Z,8.55
2023-05-07T09:36:55.871Z,7.65
2023-05-07T09:41:59.466Z,6.82
2023-05-07T09:47:06.154Z,8.95
2023-05-07T09:52:10.828Z,6.18
2023-05-07T09:57:15.520Z,7.95
2023-05-07T10:02:21.237Z,8.85
2023-05-07T10:07:24.671Z,8.25
2023-05-07T10:12:28.186Z,7.40
2023-05-07T10:17:32.832Z,8.60
2023-05-07T10:22:40.325Z,9.25
2023-05-07T10:27:45.409Z,7.13
2023-05-07T10:32:52.652Z,10.52
2023-05-07T10:37:55.591Z,6.15
2023-05-07T10:43:00.337Z,8.40
2023-05-07T10:48:27.905Z,6.10
2023-05-07T10:53:32.000Z,6.47
2023-05-07T10:58:37.875Z,6.05
2023-05-07T11:04:18.360Z,4.70
2023-05-07T11:09:21.192Z,5.85
2023-05-07T11:14:47.930Z,8.00
2023-05-07T11:19:53.076Z,6.43
2023-05-07T11:24:55.806Z,5.70
2023-05-07T11:29:58.583Z,6.70
2023-05-07T11:35:03.238Z,6.50
2023-05-07T11:40:07.749Z,7.03
2023-05-07T11:45:11.737Z,6.90
2023-05-07T11:50:15.953Z,5.05
2023-05-07T11:55:20.823Z,6.00
2023-05-07T12:00:23.794Z,5.75
2023-05-07T12:05:28.036Z,7.82
2023-05-07T12:10:30.717Z,5.95
2023-05-07T12:15:33.537Z,6.13
2023-05-07T12:20:38.285Z,7.05
2023-05-07T12:25:44.113Z,7.35
2023-05-07T12:30:48.321Z,6.05
2023-05-07T12:35:52.343Z,5.45
2023-05-07T12:40:56.587Z,6.78
2023-05-07T12:46:02.068Z,5.05
2023-05-07T12:51:07.881Z,4.05
2023-05-07T12:56:10.965Z,4.95
2023-05-07T13:01:16.509Z,9.07
2023-05-07T13:06:20.792Z,4.93
2023-05-07T13:11:23.420Z,5.28
2023-05-07T13:16:26.219Z,3.42
2023-05-07T13:21:31.629Z,5.07
2023-05-07T13:26:34.271Z,6.57
2023-05-07T13:31:37.501Z,4.22
2023-05-07T13:36:42.934Z,3.80
2023-05-07T13:41:46.037Z,4.85
2023-05-07T13:46:48.715Z,4.65
2023-05-07T13:51:52.692Z,7.90
2023-05-07T13:56:55.363Z,3.80
2023-05-07T14:01:58.032Z,3.50
2023-05-07T14:07:02.064Z,4.07
2023-05-07T14:12:05.262Z,2.97
2023-05-07T14:17:09.372Z,3.70
2023-05-07T14:22:14.962Z,2.97
2023-05-07T14:27:18.179Z,3.08
2023-05-07T14:32:20.854Z,6.68
2023-05-07T14:37:25.627Z,3.20
2023-05-07T14:42:28.233Z,3.03
2023-05-07T14:47:30.948Z,5.97
2023-05-07T14:52:34.977Z,2.92
2023-05-07T14:57:37.677Z,3.85
2023-05-07T15:02:40.522Z,3.72
2023-05-07T15:07:45.683Z,3.33
2023-05-07T15:12:48.883Z,5.85
2023-05-07T15:17:51.645Z,5.00
2023-05-07T15:22:55.684Z,8.85
2023-05-07T15:27:58.618Z,7.25
2023-05-07T15:33:01.407Z,6.20
2023-05-07T15:38:06.483Z,5.10
2023-05-07T15:43:10.308Z,7.38
2023-05-07T15:48:13.013Z,26.83
2023-05-07T15:53:17.014Z,5.10
2023-05-07T15:58:21.063Z,5.05
2023-05-07T16:03:24.639Z,6.65
2023-05-07T16:08:28.806Z,4.45
2023-05-07T16:13:31.461Z,6.65
2023-05-07T16:18:35.825Z,5.80
2023-05-07T16:23:39.819Z,5.28
2023-05-07T16:28:42.492Z,7.32
2023-05-07T16:33:45.165Z,10.32
2023-05-07T16:38:49.151Z,6.32
2023-05-07T16:43:51.795Z,5.20
2023-05-07T16:48:54.551Z,7.63
2023-05-07T16:53:58.574Z,4.32
2023-05-07T16:59:01.203Z,4.95
2023-05-07T17:04:04.050Z,4.65
2023-05-07T17:09:09.397Z,6.40
2023-05-07T17:14:12.307Z,5.15
2023-05-07T17:19:15.069Z,8.38
2023-05-07T17:24:19.290Z,4.45
2023-05-07T17:29:22.118Z,6.30
2023-05-07T17:34:24.858Z,7.18
2023-05-07T17:39:28.894Z,5.97
2023-05-07T17:44:31.692Z,5.15
2023-05-07T17:49:35.094Z,11.10
2023-05-07T17:54:39.246Z,7.43
2023-05-07T17:59:41.926Z,7.15
2023-05-07T18:04:44.634Z,6.07
2023-05-07T18:09:48.592Z,6.13
2023-05-07T18:14:51.301Z,9.02
2023-05-07T18:19:55.137Z,8.70
2023-05-07T18:24:59.492Z,7.03
2023-05-07T18:30:02.746Z,7.70
2023-05-07T18:35:06.372Z,6.53
2023-05-07T18:40:11.759Z,8.00
2023-05-07T18:45:14.875Z,7.20
2023-05-07T18:50:17.530Z,7.47
2023-05-07T18:55:22.269Z,7.37
2023-05-07T19:00:25.081Z,8.60
2023-05-07T19:05:27.773Z,8.20
2023-05-07T19:10:31.812Z,8.83
2023-05-07T19:15:34.525Z,8.03
2023-05-07T19:20:37.176Z,7.83
2023-05-07T19:25:41.346Z,7.90
2023-05-07T19:30:44.419Z,7.83
2023-05-07T19:35:47.053Z,11.23
2023-05-07T19:40:51.164Z,7.57
2023-05-07T19:45:56.904Z,8.23
2023-05-07T19:51:00.232Z,9.43
2023-05-07T19:56:06.606Z,9.73
2023-05-07T20:01:09.425Z,10.97
2023-05-07T20:06:12.715Z,6.50
2023-05-07T20:11:16.973Z,7.23
2023-05-07T20:16:19.816Z,6.57
2023-05-07T20:21:22.685Z,6.67
2023-05-07T20:26:27.382Z,6.53
2023-05-07T20:31:34.017Z,5.17
2023-05-07T20:36:37.694Z,6.67
2023-05-07T20:41:41.691Z,8.70
2023-05-07T20:46:44.609Z,5.40
2023-05-07T20:51:47.291Z,8.57
2023-05-07T20:56:51.266Z,5.00
2023-05-07T21:01:54.476Z,4.93
2023-05-07T21:06:57.313Z,5.37
2023-05-07T21:12:01.567Z,7.57
2023-05-07T21:17:06.970Z,6.13
2023-05-07T21:22:10.059Z,6.17
2023-05-07T21:27:14.186Z,7.87
2023-05-07T21:32:16.940Z,8.07
2023-05-07T21:37:20.072Z,6.10
2023-05-07T21:42:24.177Z,7.27
2023-05-07T21:47:26.951Z,8.17
2023-05-07T21:52:29.761Z,9.20
2023-05-07T21:57:33.824Z,5.63
2023-05-07T22:02:36.930Z,8.07
2023-05-07T22:07:39.665Z,6.13
2023-05-07T22:12:43.634Z,6.47
2023-05-07T22:17:46.345Z,7.87
2023-05-07T22:22:52.205Z,9.07
2023-05-07T22:27:56.590Z,6.27
2023-05-07T22:32:59.232Z,9.47
2023-05-07T22:38:02.035Z,6.90
2023-05-07T22:43:06.154Z,7.27
2023-05-07T22:48:08.850Z,7.00
2023-05-07T22:53:11.508Z,7.80
2023-05-07T22:58:15.808Z,6.20
2023-05-07T23:03:18.536Z,8.70
2023-05-07T23:08:21.467Z,6.83
2023-05-07T23:13:25.557Z,6.93
2023-05-07T23:18:30.221Z,7.17
2023-05-07T23:23:35.132Z,7.40
2023-05-07T23:28:39.103Z,9.37
2023-05-07T23:33:41.752Z,8.13
2023-05-07T23:38:44.437Z,7.50
2023-05-07T23:43:48.369Z,8.17
2023-05-07T23:48:51.048Z,8.00
2023-05-07T23:53:53.785Z,8.73
2023-05-07T23:58:57.971Z,7.77
